Elortondo, Argentina
Current Conditions -  °F | °C
As of 10:00 PM on Saturday 25 Oct 2014 (Local Time) from SAAR Reporting Station
Clear Clear  
Wind Chill: 77°   Ceiling: Unl
Heat Index: 79°   Visibility: 6mi
Dew Point: 68°   Wind: 6mph
Humidity: 74%   Direction: 50°NE
Pressure: 29.8"   Gusts: NA
Location:  33.7°S, 61.62°W
Report Text: SAAR 260100Z 05005KT CAVOK 25/20 Q1009
Loading
Personal Weather Stations






























Interactive Weather Map
Tropical Storm Tracking
New forecast layout! Learn more

10-Day Weather Forecast

Advertisements
Track Severe Weather on mobile